Time;durP1;ratioP1;P1;durP2;ratioP2;P2;SDS_P1;SDS_P2;PMS_P1;PMS_P2;Temp;Humidity;BMP_temperature;BMP_pressure;BME280_temperature;BME280_humidity;BME280_pressure;Samples;Min_cycle;Max_cycle;Signal;HPM_P1;HPM_P2
2022/08/01 00:01:57;;;;;;;0.50;0.50;;;;;;;;;;5055041;28;20201;-84
2022/08/01 00:04:29;;;;;;;0.30;0.30;;;;;;;;;;5053762;28;20201;-84
2022/08/01 00:06:58;;;;;;;1.00;0.90;;;;;;;;;;5054904;28;20206;-84
2022/08/01 00:09:32;;;;;;;6.43;0.67;;;;;;;;;;5054534;28;20213;-84
2022/08/01 00:12:04;;;;;;;0.47;0.47;;;;;;;;;;5071493;28;20209;-84
2022/08/01 00:14:36;;;;;;;1.67;1.03;;;;;;;;;;5082483;28;20201;-84
2022/08/01 00:17:06;;;;;;;0.47;0.47;;;;;;;;;;5055633;28;20203;-84
2022/08/01 00:19:36;;;;;;;0.33;0.33;;;;;;;;;;5063917;28;20206;-83
2022/08/01 00:22:10;;;;;;;0.43;0.43;;;;;;;;;;5058796;28;20207;-84
2022/08/01 00:24:42;;;;;;;3.17;1.70;;;;;;;;;;5063416;28;20227;-83
2022/08/01 00:27:16;;;;;;;0.80;0.80;;;;;;;;;;5072345;28;20203;-83
2022/08/01 00:29:45;;;;;;;0.50;0.50;;;;;;;;;;5071340;28;20283;-83
2022/08/01 00:32:36;;;;;;;0.67;0.67;;;;;;;;;;5054295;28;20209;-83
2022/08/01 00:35:09;;;;;;;1.47;1.27;;;;;;;;;;5064666;28;20231;-83
2022/08/01 00:37:37;;;;;;;0.33;0.33;;;;;;;;;;5056955;28;20227;-83
2022/08/01 00:40:09;;;;;;;1.27;1.27;;;;;;;;;;5053993;28;20203;-83
2022/08/01 00:42:41;;;;;;;0.80;0.80;;;;;;;;;;5070697;28;20220;-85
2022/08/01 00:45:11;;;;;;;1.80;1.70;;;;;;;;;;5074116;28;20296;-85
2022/08/01 00:47:44;;;;;;;0.30;0.30;;;;;;;;;;5070447;28;20225;-84
2022/08/01 00:50:14;;;;;;;0.40;0.40;;;;;;;;;;5062750;28;20297;-84
2022/08/01 00:52:43;;;;;;;0.90;0.90;;;;;;;;;;5073521;28;20202;-84
2022/08/01 00:55:20;;;;;;;0.30;0.30;;;;;;;;;;5054328;28;20208;-84
2022/08/01 00:57:53;;;;;;;0.20;0.20;;;;;;;;;;5065662;28;20213;-85
2022/08/01 01:00:33;;;;;;;0.60;0.60;;;;;;;;;;5068752;28;20200;-85
2022/08/01 01:03:20;;;;;;;1.03;1.03;;;;;;;;;;5053599;28;20206;-85
2022/08/01 01:06:03;;;;;;;4.67;2.30;;;;;;;;;;5053750;28;20225;-85
2022/08/01 01:08:35;;;;;;;0.50;0.50;;;;;;;;;;5065532;28;20214;-85
2022/08/01 01:11:12;;;;;;;1.43;1.33;;;;;;;;;;5057483;28;20208;-85
2022/08/01 01:13:54;;;;;;;0.33;0.33;;;;;;;;;;5068434;28;20204;-85
2022/08/01 01:16:26;;;;;;;1.23;1.13;;;;;;;;;;5072292;28;20212;-85
2022/08/01 01:19:05;;;;;;;1.80;1.70;;;;;;;;;;5073384;28;20202;-85
2022/08/01 01:21:40;;;;;;;0.90;0.90;;;;;;;;;;5066107;28;20197;-85
2022/08/01 01:24:18;;;;;;;0.20;0.20;;;;;;;;;;5054355;28;20192;-85
2022/08/01 01:26:51;;;;;;;0.67;0.67;;;;;;;;;;5067042;28;20218;-85
2022/08/01 01:29:24;;;;;;;0.50;0.50;;;;;;;;;;5056578;28;20240;-85
2022/08/01 01:32:00;;;;;;;0.30;0.30;;;;;;;;;;5083731;28;20204;-85
2022/08/01 01:34:29;;;;;;;0.30;0.30;;;;;;;;;;5053254;28;20225;-85
2022/08/01 01:36:59;;;;;;;1.10;1.10;;;;;;;;;;5053595;28;20204;-82
2022/08/01 01:39:29;;;;;;;1.60;1.27;;;;;;;;;;5056205;28;20195;-82
2022/08/01 01:41:59;;;;;;;1.33;1.33;;;;;;;;;;5054137;28;20204;-82
2022/08/01 01:44:29;;;;;;;0.20;0.20;;;;;;;;;;5073550;28;20208;-85
2022/08/01 01:46:58;;;;;;;0.30;0.30;;;;;;;;;;5069484;28;20211;-85
2022/08/01 01:49:27;;;;;;;0.90;0.90;;;;;;;;;;5037083;28;20218;-85
2022/08/01 01:51:57;;;;;;;0.63;0.63;;;;;;;;;;5053930;28;20225;-85
2022/08/01 01:54:31;;;;;;;0.50;0.50;;;;;;;;;;5054003;28;20190;-85
2022/08/01 01:57:01;;;;;;;0.80;0.80;;;;;;;;;;5052669;28;20204;-85
2022/08/01 01:59:36;;;;;;;0.30;0.30;;;;;;;;;;5052672;28;20195;-84
2022/08/01 02:02:09;;;;;;;0.40;0.40;;;;;;;;;;5060378;28;20221;-85
2022/08/01 02:04:39;;;;;;;0.60;0.60;;;;;;;;;;5053728;28;20196;-85
2022/08/01 02:07:08;;;;;;;0.43;0.37;;;;;;;;;;5053756;28;20205;-85
2022/08/01 02:09:38;;;;;;;0.63;0.63;;;;;;;;;;5052366;28;20207;-84
2022/08/01 02:12:07;;;;;;;0.30;0.30;;;;;;;;;;5052899;28;20199;-85
2022/08/01 02:14:39;;;;;;;0.20;0.20;;;;;;;;;;5053411;28;20212;-85
2022/08/01 02:17:10;;;;;;;0.77;0.77;;;;;;;;;;5057481;28;20200;-85
2022/08/01 02:19:40;;;;;;;0.40;0.40;;;;;;;;;;5067878;28;20198;-85
2022/08/01 02:22:10;;;;;;;0.23;0.23;;;;;;;;;;5060190;28;20200;-85
2022/08/01 02:24:41;;;;;;;0.30;0.30;;;;;;;;;;5059362;28;20207;-85
2022/08/01 02:27:10;;;;;;;0.40;0.40;;;;;;;;;;5053189;28;20194;-85
2022/08/01 02:29:42;;;;;;;1.37;1.37;;;;;;;;;;5052090;28;20260;-85
2022/08/01 02:32:13;;;;;;;0.30;0.30;;;;;;;;;;5051911;28;20205;-85
2022/08/01 02:34:43;;;;;;;0.53;0.53;;;;;;;;;;5053215;28;20228;-85
2022/08/01 02:37:11;;;;;;;0.30;0.30;;;;;;;;;;5053030;28;20290;-85
2022/08/01 02:39:40;;;;;;;0.40;0.40;;;;;;;;;;5053164;28;20206;-85
2022/08/01 02:42:09;;;;;;;0.30;0.30;;;;;;;;;;5066603;28;20197;-85
2022/08/01 02:44:39;;;;;;;0.30;0.30;;;;;;;;;;5052370;28;20226;-85
2022/08/01 02:47:10;;;;;;;0.30;0.30;;;;;;;;;;5054242;28;20208;-85
2022/08/01 02:49:40;;;;;;;0.60;0.60;;;;;;;;;;5063458;28;20205;-85
2022/08/01 02:52:11;;;;;;;0.40;0.40;;;;;;;;;;5065894;28;20252;-85
2022/08/01 02:54:40;;;;;;;0.37;0.37;;;;;;;;;;5072048;28;20198;-85
2022/08/01 02:57:09;;;;;;;0.73;0.73;;;;;;;;;;5057368;28;20193;-85
2022/08/01 02:59:42;;;;;;;0.20;0.20;;;;;;;;;;5059441;28;20280;-85
2022/08/01 03:02:14;;;;;;;0.73;0.73;;;;;;;;;;5072034;28;20228;-85
2022/08/01 03:04:43;;;;;;;0.30;0.30;;;;;;;;;;5058711;28;20206;-85
2022/08/01 03:07:12;;;;;;;0.50;0.50;;;;;;;;;;5058514;28;20210;-85
2022/08/01 03:09:41;;;;;;;0.57;0.57;;;;;;;;;;5057827;28;20204;-85
2022/08/01 03:12:13;;;;;;;0.37;0.37;;;;;;;;;;5072238;28;20206;-85
2022/08/01 03:14:42;;;;;;;0.60;0.60;;;;;;;;;;5067647;28;20199;-85
2022/08/01 03:17:12;;;;;;;0.73;0.73;;;;;;;;;;5051585;28;20203;-85
2022/08/01 03:19:42;;;;;;;1.03;1.03;;;;;;;;;;5071335;28;20192;-85
2022/08/01 03:22:13;;;;;;;0.50;0.50;;;;;;;;;;5065108;28;20200;-85
2022/08/01 03:24:43;;;;;;;0.73;0.73;;;;;;;;;;5061776;28;20209;-85
2022/08/01 03:27:15;;;;;;;0.70;0.70;;;;;;;;;;5057741;28;20202;-85
2022/08/01 03:29:46;;;;;;;0.57;0.57;;;;;;;;;;5058549;28;20205;-85
2022/08/01 03:32:15;;;;;;;0.50;0.50;;;;;;;;;;5065698;28;20215;-85
2022/08/01 03:34:45;;;;;;;0.93;0.93;;;;;;;;;;5051198;28;20266;-84
2022/08/01 03:37:16;;;;;;;0.30;0.30;;;;;;;;;;5066886;28;20202;-85
2022/08/01 03:39:46;;;;;;;0.50;0.50;;;;;;;;;;5052781;28;20199;-85
2022/08/01 03:42:17;;;;;;;0.30;0.30;;;;;;;;;;5059199;28;20195;-85
2022/08/01 03:44:49;;;;;;;0.63;0.63;;;;;;;;;;5075916;28;20203;-85
2022/08/01 03:47:18;;;;;;;0.40;0.40;;;;;;;;;;5057751;28;20206;-85
2022/08/01 03:49:49;;;;;;;0.60;0.60;;;;;;;;;;5061692;28;20208;-84
2022/08/01 03:52:18;;;;;;;1.43;1.40;;;;;;;;;;5068282;28;20223;-85
2022/08/01 03:54:48;;;;;;;0.90;0.90;;;;;;;;;;5055061;28;20203;-85
2022/08/01 03:57:23;;;;;;;0.80;0.80;;;;;;;;;;5068765;28;20247;-85
2022/08/01 04:00:06;;;;;;;3.50;0.93;;;;;;;;;;5062620;28;20207;-85
2022/08/01 04:02:35;;;;;;;10.67;2.23;;;;;;;;;;5069105;28;20197;-85
2022/08/01 04:05:06;;;;;;;0.93;0.93;;;;;;;;;;5064818;28;20194;-85
2022/08/01 04:07:36;;;;;;;1.37;1.37;;;;;;;;;;5057841;28;20211;-85
2022/08/01 04:10:05;;;;;;;4.13;1.43;;;;;;;;;;5055703;28;20228;-85
2022/08/01 04:12:35;;;;;;;1.30;0.97;;;;;;;;;;5056057;28;20229;-85
2022/08/01 04:15:04;;;;;;;1.33;1.23;;;;;;;;;;5071121;28;20205;-83
2022/08/01 04:17:32;;;;;;;16.20;2.27;;;;;;;;;;5071391;28;20209;-83
2022/08/01 04:20:01;;;;;;;3.70;2.73;;;;;;;;;;5060848;28;20202;-83
2022/08/01 04:22:31;;;;;;;5.17;2.77;;;;;;;;;;5071314;28;20205;-85
2022/08/01 04:25:07;;;;;;;4.40;2.47;;;;;;;;;;5068147;28;20216;-85
2022/08/01 04:27:38;;;;;;;1.83;1.57;;;;;;;;;;5064954;28;20198;-85
2022/08/01 04:30:19;;;;;;;14.60;2.50;;;;;;;;;;5074555;28;20240;-85
2022/08/01 04:32:51;;;;;;;3.93;2.23;;;;;;;;;;5081885;28;20283;-85
2022/08/01 04:35:21;;;;;;;1.80;1.70;;;;;;;;;;5070982;28;20233;-85
2022/08/01 04:38:18;;;;;;;3.17;2.73;;;;;;;;;;5066917;28;20206;-85
2022/08/01 04:40:47;;;;;;;19.57;1.83;;;;;;;;;;5054302;28;20201;-85
2022/08/01 04:43:21;;;;;;;3.67;1.50;;;;;;;;;;5066773;28;20197;-84
2022/08/01 04:45:49;;;;;;;1.43;1.33;;;;;;;;;;5059947;28;20210;-85
2022/08/01 04:48:20;;;;;;;4.53;1.70;;;;;;;;;;5073952;28;20202;-85
2022/08/01 04:50:50;;;;;;;4.53;1.87;;;;;;;;;;5068782;28;20222;-85
2022/08/01 04:53:22;;;;;;;9.97;2.60;;;;;;;;;;5054047;28;20293;-84
2022/08/01 04:55:51;;;;;;;13.90;2.63;;;;;;;;;;5067845;28;20200;-85
2022/08/01 04:58:22;;;;;;;2.33;2.13;;;;;;;;;;5053629;28;20293;-85
2022/08/01 05:00:53;;;;;;;6.67;2.77;;;;;;;;;;5070353;28;20193;-84
2022/08/01 05:03:22;;;;;;;5.93;3.57;;;;;;;;;;5063788;28;20225;-85
2022/08/01 05:05:51;;;;;;;4.00;2.83;;;;;;;;;;5054257;28;20212;-84
2022/08/01 05:08:23;;;;;;;7.20;2.97;;;;;;;;;;5062623;28;20225;-84
2022/08/01 05:10:57;;;;;;;8.90;2.33;;;;;;;;;;5071866;28;20200;-85
2022/08/01 05:13:25;;;;;;;4.23;1.50;;;;;;;;;;5053581;28;20206;-84
2022/08/01 05:15:54;;;;;;;4.03;2.27;;;;;;;;;;5055423;28;20240;-85
2022/08/01 05:18:22;;;;;;;2.30;1.63;;;;;;;;;;5074208;28;20265;-85
2022/08/01 05:20:55;;;;;;;1.43;1.27;;;;;;;;;;5079643;28;20227;-85
2022/08/01 05:23:25;;;;;;;9.57;3.07;;;;;;;;;;5053253;28;20189;-85
2022/08/01 05:26:13;;;;;;;1.80;0.77;;;;;;;;;;5053091;28;20266;-85
2022/08/01 05:28:42;;;;;;;8.63;1.10;;;;;;;;;;5053296;28;20234;-85
2022/08/01 05:31:11;;;;;;;2.13;1.80;;;;;;;;;;5052717;28;20207;-85
2022/08/01 05:33:42;;;;;;;9.03;1.33;;;;;;;;;;5053399;28;20235;-85
2022/08/01 05:36:10;;;;;;;4.70;1.30;;;;;;;;;;5053856;28;20217;-85
2022/08/01 05:38:42;;;;;;;0.50;0.50;;;;;;;;;;5054012;28;20199;-85
2022/08/01 05:41:14;;;;;;;5.17;3.07;;;;;;;;;;5052821;28;20202;-85
2022/08/01 05:43:48;;;;;;;1.37;1.27;;;;;;;;;;5080165;28;20224;-85
2022/08/01 05:46:19;;;;;;;3.33;1.40;;;;;;;;;;5062434;28;20226;-85
2022/08/01 05:48:47;;;;;;;0.77;0.77;;;;;;;;;;5069324;28;20206;-85
2022/08/01 05:51:18;;;;;;;1.27;1.20;;;;;;;;;;5053050;28;20199;-85
2022/08/01 05:53:52;;;;;;;3.83;1.60;;;;;;;;;;5065101;28;20223;-85
2022/08/01 05:56:21;;;;;;;1.93;1.00;;;;;;;;;;5077254;28;20200;-85
2022/08/01 05:58:53;;;;;;;2.77;1.80;;;;;;;;;;5069365;28;20256;-84
2022/08/01 06:01:27;;;;;;;0.83;0.83;;;;;;;;;;5053477;28;20212;-85
2022/08/01 06:03:55;;;;;;;0.90;0.90;;;;;;;;;;5066252;28;20210;-85
2022/08/01 06:06:29;;;;;;;2.87;1.67;;;;;;;;;;5059017;28;20202;-85
2022/08/01 06:09:00;;;;;;;0.57;0.57;;;;;;;;;;5072686;28;20249;-85
2022/08/01 06:11:31;;;;;;;0.37;0.37;;;;;;;;;;5053522;28;20285;-85
2022/08/01 06:14:03;;;;;;;3.13;1.43;;;;;;;;;;5066044;28;20278;-85
2022/08/01 06:16:32;;;;;;;1.60;0.73;;;;;;;;;;5052624;28;20232;-85
2022/08/01 06:19:03;;;;;;;1.10;1.00;;;;;;;;;;5066370;28;20198;-85
2022/08/01 06:21:33;;;;;;;0.40;0.40;;;;;;;;;;5067241;28;20205;-85
2022/08/01 06:24:12;;;;;;;1.33;0.70;;;;;;;;;;5064142;28;20198;-83
2022/08/01 06:26:40;;;;;;;0.43;0.43;;;;;;;;;;5053506;28;20254;-85
2022/08/01 06:29:14;;;;;;;1.60;1.07;;;;;;;;;;5052246;28;20218;-83
2022/08/01 06:31:47;;;;;;;3.73;1.90;;;;;;;;;;5053754;28;20194;-83
2022/08/01 06:34:22;;;;;;;2.10;1.37;;;;;;;;;;5063663;28;20225;-83
2022/08/01 06:36:57;;;;;;;9.30;1.37;;;;;;;;;;5065330;28;20194;-83
2022/08/01 06:42:36;;;;;;;0.73;0.40;;;;;;;;;;5045620;28;20208;-84
2022/08/01 06:45:22;;;;;;;2.77;2.67;;;;;;;;;;5052670;28;20376;-84
2022/08/01 06:47:58;;;;;;;1.33;0.80;;;;;;;;;;5088590;28;20207;-84
2022/08/01 06:50:28;;;;;;;1.37;1.37;;;;;;;;;;5067615;28;20205;-85
2022/08/01 06:52:56;;;;;;;1.77;1.50;;;;;;;;;;5063606;28;20209;-81
2022/08/01 06:55:26;;;;;;;3.93;1.73;;;;;;;;;;5067887;28;20210;-82
2022/08/01 06:57:55;;;;;;;5.00;2.17;;;;;;;;;;5052013;28;20200;-81
2022/08/01 07:00:24;;;;;;;6.80;1.23;;;;;;;;;;5055999;28;20287;-81
2022/08/01 07:02:53;;;;;;;3.40;1.57;;;;;;;;;;5054908;28;20201;-82
2022/08/01 07:05:22;;;;;;;3.23;1.30;;;;;;;;;;5066552;28;20203;-82
2022/08/01 07:07:52;;;;;;;9.30;3.20;;;;;;;;;;5055119;28;20203;-82
2022/08/01 07:10:24;;;;;;;10.33;3.10;;;;;;;;;;5059496;28;20194;-87
2022/08/01 07:12:54;;;;;;;4.47;1.77;;;;;;;;;;5054996;28;20310;-85
2022/08/01 07:15:26;;;;;;;6.33;0.83;;;;;;;;;;5056626;28;20215;-84
2022/08/01 07:17:54;;;;;;;0.70;0.70;;;;;;;;;;5059411;28;20208;-84
2022/08/01 07:20:23;;;;;;;3.10;1.17;;;;;;;;;;5062396;28;20211;-81
2022/08/01 07:22:52;;;;;;;1.63;1.43;;;;;;;;;;5056463;28;20209;-83
2022/08/01 07:25:23;;;;;;;1.60;1.50;;;;;;;;;;5063395;28;20208;-82
2022/08/01 07:27:56;;;;;;;3.43;1.50;;;;;;;;;;5059337;28;20240;-83
2022/08/01 07:30:25;;;;;;;2.43;1.57;;;;;;;;;;5064105;28;20230;-84
2022/08/01 07:32:58;;;;;;;2.70;1.70;;;;;;;;;;5060491;28;20218;-82
2022/08/01 07:35:27;;;;;;;2.20;1.50;;;;;;;;;;5069194;28;20226;-82
2022/08/01 07:37:55;;;;;;;2.73;1.23;;;;;;;;;;5058099;28;20214;-83
2022/08/01 07:40:24;;;;;;;2.23;1.50;;;;;;;;;;5060982;28;20215;-83
2022/08/01 07:42:52;;;;;;;7.03;1.93;;;;;;;;;;5070325;28;20200;-83
2022/08/01 07:45:22;;;;;;;3.40;1.30;;;;;;;;;;5073224;28;20197;-82
2022/08/01 07:47:51;;;;;;;1.93;1.37;;;;;;;;;;5067436;28;20217;-82
2022/08/01 07:50:19;;;;;;;3.00;0.90;;;;;;;;;;5063117;28;20205;-82
2022/08/01 07:52:48;;;;;;;2.43;1.87;;;;;;;;;;5054678;28;20218;-83
2022/08/01 07:55:16;;;;;;;4.03;1.33;;;;;;;;;;5064808;28;20198;-83
2022/08/01 07:57:45;;;;;;;1.70;1.50;;;;;;;;;;5068143;28;20197;-83
2022/08/01 08:00:14;;;;;;;1.00;1.00;;;;;;;;;;5058746;28;20202;-82
2022/08/01 08:02:44;;;;;;;5.33;1.57;;;;;;;;;;5065536;28;20232;-82
2022/08/01 08:05:13;;;;;;;2.73;1.13;;;;;;;;;;5063756;28;20205;-82
2022/08/01 08:07:41;;;;;;;6.60;2.37;;;;;;;;;;5069054;28;20221;-81
2022/08/01 08:10:11;;;;;;;5.03;2.13;;;;;;;;;;5064125;28;20228;-82
2022/08/01 08:12:39;;;;;;;2.27;1.70;;;;;;;;;;5060127;28;20329;-82
2022/08/01 08:15:08;;;;;;;2.83;1.27;;;;;;;;;;5067349;28;20214;-81
2022/08/01 08:17:37;;;;;;;1.60;1.37;;;;;;;;;;5065402;28;20222;-83
2022/08/01 08:20:10;;;;;;;1.00;1.00;;;;;;;;;;5053496;28;20197;-83
2022/08/01 08:22:38;;;;;;;2.77;2.13;;;;;;;;;;5057189;28;20228;-82
2022/08/01 08:25:08;;;;;;;0.97;0.93;;;;;;;;;;5067954;28;20297;-83
2022/08/01 08:27:36;;;;;;;3.00;1.73;;;;;;;;;;5068041;28;20209;-82
2022/08/01 08:30:07;;;;;;;2.17;1.40;;;;;;;;;;5070668;28;20253;-81
2022/08/01 08:32:36;;;;;;;2.50;1.60;;;;;;;;;;5058104;28;20266;-82
2022/08/01 08:35:05;;;;;;;8.10;2.47;;;;;;;;;;5058435;28;20226;-82
2022/08/01 08:37:36;;;;;;;5.63;1.67;;;;;;;;;;5055836;28;20207;-82
2022/08/01 08:40:10;;;;;;;3.43;1.57;;;;;;;;;;5056871;28;20208;-82
2022/08/01 08:42:42;;;;;;;1.67;1.37;;;;;;;;;;5064613;28;20213;-82
2022/08/01 08:45:11;;;;;;;1.33;1.23;;;;;;;;;;5061163;28;20198;-83
2022/08/01 08:47:40;;;;;;;1.97;1.50;;;;;;;;;;5061773;28;20204;-82
2022/08/01 08:50:08;;;;;;;3.67;1.13;;;;;;;;;;5062982;28;20207;-82
2022/08/01 08:52:40;;;;;;;1.70;1.23;;;;;;;;;;5061622;28;20211;-82
2022/08/01 08:55:10;;;;;;;2.87;1.13;;;;;;;;;;5065047;28;20229;-82
2022/08/01 08:57:41;;;;;;;2.73;1.43;;;;;;;;;;5067533;28;20202;-84
2022/08/01 09:00:11;;;;;;;4.17;1.40;;;;;;;;;;5056601;28;20231;-82
2022/08/01 09:02:42;;;;;;;0.93;0.93;;;;;;;;;;5063056;28;20268;-82
2022/08/01 09:05:11;;;;;;;2.93;1.50;;;;;;;;;;5065966;28;20195;-82
2022/08/01 09:07:48;;;;;;;5.13;1.17;;;;;;;;;;5059339;28;20204;-82
2022/08/01 09:10:16;;;;;;;2.43;1.53;;;;;;;;;;5062306;28;20214;-81
2022/08/01 09:13:04;;;;;;;3.23;1.17;;;;;;;;;;5059327;28;20227;-81
2022/08/01 09:15:46;;;;;;;6.17;1.73;;;;;;;;;;5062758;28;20249;-81
2022/08/01 09:18:29;;;;;;;0.50;0.50;;;;;;;;;;5063460;28;20209;-81
2022/08/01 09:21:16;;;;;;;6.43;1.27;;;;;;;;;;5058134;28;20204;-81
2022/08/01 09:23:47;;;;;;;1.77;1.60;;;;;;;;;;5058498;28;20199;-84
2022/08/01 09:26:23;;;;;;;3.03;1.63;;;;;;;;;;5055975;28;20211;-82
2022/08/01 09:28:51;;;;;;;1.23;1.17;;;;;;;;;;5058011;28;20235;-83
2022/08/01 09:31:20;;;;;;;2.50;1.10;;;;;;;;;;5062653;28;20210;-82
2022/08/01 09:33:51;;;;;;;1.37;0.97;;;;;;;;;;5044855;28;20243;-82
2022/08/01 09:36:21;;;;;;;1.00;1.00;;;;;;;;;;5056483;28;20217;-83
2022/08/01 09:38:51;;;;;;;4.20;1.27;;;;;;;;;;5061357;28;20223;-82
2022/08/01 09:41:30;;;;;;;1.10;1.00;;;;;;;;;;5055688;28;20213;-81
2022/08/01 09:44:07;;;;;;;1.10;0.80;;;;;;;;;;5059093;28;20193;-81
2022/08/01 09:46:36;;;;;;;3.00;0.97;;;;;;;;;;5057607;28;20208;-82
2022/08/01 09:49:08;;;;;;;4.37;1.27;;;;;;;;;;5066792;28;20192;-81
2022/08/01 09:51:40;;;;;;;1.20;0.90;;;;;;;;;;5063249;28;20199;-82
2022/08/01 09:54:33;;;;;;;1.07;0.60;;;;;;;;;;5064003;28;20218;-81
2022/08/01 09:57:13;;;;;;;2.47;0.67;;;;;;;;;;5067442;28;20235;-81
2022/08/01 09:59:43;;;;;;;0.80;0.80;;;;;;;;;;5064673;28;20197;-81
2022/08/01 10:02:30;;;;;;;4.57;1.30;;;;;;;;;;5055868;28;20202;-81
2022/08/01 10:04:59;;;;;;;0.33;0.33;;;;;;;;;;5052334;28;20201;-80
2022/08/01 10:07:35;;;;;;;2.73;2.10;;;;;;;;;;5055872;28;21043;-81
2022/08/01 10:10:14;;;;;;;1.10;0.67;;;;;;;;;;5051731;28;20315;-81
2022/08/01 10:12:43;;;;;;;1.00;0.93;;;;;;;;;;5061219;28;20213;-82
2022/08/01 10:15:16;;;;;;;1.70;0.80;;;;;;;;;;5061556;28;20229;-82
2022/08/01 10:17:48;;;;;;;1.23;1.13;;;;;;;;;;5057871;28;20273;-81
2022/08/01 10:20:19;;;;;;;0.40;0.40;;;;;;;;;;5061120;28;20198;-82
2022/08/01 10:23:00;;;;;;;2.90;1.00;;;;;;;;;;5057127;28;20205;-81
2022/08/01 10:25:35;;;;;;;1.73;1.00;;;;;;;;;;5053971;28;20232;-81
2022/08/01 10:28:14;;;;;;;8.40;1.87;;;;;;;;;;5066412;28;20213;-82
2022/08/01 10:30:49;;;;;;;0.90;0.90;;;;;;;;;;5060897;28;20218;-81
2022/08/01 10:33:19;;;;;;;0.37;0.37;;;;;;;;;;5064796;28;20210;-82
2022/08/01 10:36:08;;;;;;;1.70;1.23;;;;;;;;;;5065380;28;20236;-81
2022/08/01 10:38:37;;;;;;;2.80;1.10;;;;;;;;;;5062767;28;20203;-82
2022/08/01 10:41:07;;;;;;;0.57;0.57;;;;;;;;;;5070956;28;20194;-82
2022/08/01 10:43:36;;;;;;;0.30;0.30;;;;;;;;;;5065920;28;20200;-82
2022/08/01 10:46:12;;;;;;;0.40;0.40;;;;;;;;;;5062483;28;20196;-82
2022/08/01 10:48:44;;;;;;;0.57;0.40;;;;;;;;;;5054997;28;20206;-84
2022/08/01 10:51:15;;;;;;;3.00;0.93;;;;;;;;;;5065772;28;20199;-84
2022/08/01 10:53:49;;;;;;;1.80;0.80;;;;;;;;;;5060059;28;20205;-85
2022/08/01 10:56:23;;;;;;;2.90;0.70;;;;;;;;;;5059429;28;20242;-84
2022/08/01 10:59:02;;;;;;;2.93;1.20;;;;;;;;;;5071245;28;20219;-83
2022/08/01 11:01:35;;;;;;;2.93;0.87;;;;;;;;;;5067617;28;20187;-83
2022/08/01 11:04:10;;;;;;;1.37;1.27;;;;;;;;;;5062967;28;20712;-83
2022/08/01 11:06:48;;;;;;;1.03;0.93;;;;;;;;;;5065264;28;20229;-85
2022/08/01 11:09:23;;;;;;;2.83;1.10;;;;;;;;;;5062967;28;20202;-84
2022/08/01 11:12:08;;;;;;;1.67;1.57;;;;;;;;;;5061012;28;20194;-83
2022/08/01 11:15:00;;;;;;;0.63;0.63;;;;;;;;;;5060623;28;20257;-85
2022/08/01 11:17:34;;;;;;;1.17;1.07;;;;;;;;;;5059514;28;20205;-82
2022/08/01 11:20:10;;;;;;;1.07;0.93;;;;;;;;;;5061245;28;20201;-82
2022/08/01 11:22:59;;;;;;;3.30;1.73;;;;;;;;;;5064562;28;20215;-82
2022/08/01 11:25:49;;;;;;;0.63;0.63;;;;;;;;;;5064337;28;20292;-81
2022/08/01 11:28:39;;;;;;;0.40;0.40;;;;;;;;;;5069310;28;20291;-82
2022/08/01 11:31:27;;;;;;;5.47;1.30;;;;;;;;;;5066239;28;20222;-83
2022/08/01 11:33:56;;;;;;;1.10;0.97;;;;;;;;;;5058920;28;20199;-83
2022/08/01 11:36:30;;;;;;;2.50;2.27;;;;;;;;;;5066801;28;20227;-82
2022/08/01 11:39:19;;;;;;;2.27;1.13;;;;;;;;;;5060459;28;20202;-83
2022/08/01 11:41:49;;;;;;;2.77;1.67;;;;;;;;;;5067575;28;20240;-85
2022/08/01 11:44:22;;;;;;;0.67;0.67;;;;;;;;;;5068557;28;20208;-85
2022/08/01 11:46:58;;;;;;;1.23;1.00;;;;;;;;;;5070714;28;20198;-85
2022/08/01 11:49:29;;;;;;;1.10;0.90;;;;;;;;;;5056604;28;20208;-84
2022/08/01 11:51:58;;;;;;;2.93;1.93;;;;;;;;;;5061187;28;20223;-84
2022/08/01 11:54:28;;;;;;;0.70;0.70;;;;;;;;;;5064643;28;20213;-84
2022/08/01 11:57:04;;;;;;;0.33;0.33;;;;;;;;;;5079918;28;20292;-84
2022/08/01 11:59:39;;;;;;;1.63;1.50;;;;;;;;;;5059363;28;20208;-84
2022/08/01 12:02:31;;;;;;;3.67;1.83;;;;;;;;;;5062490;28;20315;-83
2022/08/01 12:05:00;;;;;;;2.23;0.97;;;;;;;;;;5054925;28;20194;-83
2022/08/01 12:07:32;;;;;;;0.30;0.30;;;;;;;;;;5063542;28;20201;-84
2022/08/01 12:10:02;;;;;;;1.73;0.97;;;;;;;;;;5063751;28;20206;-85
2022/08/01 12:12:32;;;;;;;5.17;1.47;;;;;;;;;;5071379;28;20202;-86
2022/08/01 12:15:03;;;;;;;0.53;0.53;;;;;;;;;;5072532;28;20229;-84
2022/08/01 12:17:36;;;;;;;0.57;0.57;;;;;;;;;;5055738;28;20207;-84
2022/08/01 12:20:06;;;;;;;2.17;1.23;;;;;;;;;;5065229;28;20222;-84
2022/08/01 12:22:35;;;;;;;0.73;0.73;;;;;;;;;;5058836;28;20199;-83
2022/08/01 12:25:08;;;;;;;0.40;0.40;;;;;;;;;;5059503;28;20249;-87
2022/08/01 12:27:38;;;;;;;2.97;1.37;;;;;;;;;;5063126;28;20222;-86
2022/08/01 12:30:10;;;;;;;1.50;1.40;;;;;;;;;;5064178;28;20249;-85
2022/08/01 12:32:39;;;;;;;1.77;1.30;;;;;;;;;;5066774;28;20217;-85
2022/08/01 12:35:08;;;;;;;2.90;1.33;;;;;;;;;;5062479;28;20218;-85
2022/08/01 12:37:37;;;;;;;0.57;0.57;;;;;;;;;;5062386;28;20218;-83
2022/08/01 12:40:19;;;;;;;2.73;0.70;;;;;;;;;;5061487;28;20237;-84
2022/08/01 12:42:50;;;;;;;0.43;0.43;;;;;;;;;;5056801;28;20213;-83
2022/08/01 12:45:20;;;;;;;0.77;0.70;;;;;;;;;;5063683;28;20533;-83
2022/08/01 12:47:49;;;;;;;0.20;0.20;;;;;;;;;;5061631;28;20235;-84
2022/08/01 12:50:20;;;;;;;0.73;0.53;;;;;;;;;;5056575;28;20215;-83
2022/08/01 12:52:51;;;;;;;0.30;0.30;;;;;;;;;;5058312;28;20203;-83
2022/08/01 12:55:20;;;;;;;1.23;0.50;;;;;;;;;;5054788;28;20269;-86
2022/08/01 12:57:54;;;;;;;0.20;0.20;;;;;;;;;;5054664;28;20258;-83
2022/08/01 13:00:26;;;;;;;1.20;0.60;;;;;;;;;;5066902;28;20201;-85
2022/08/01 13:03:03;;;;;;;2.37;1.23;;;;;;;;;;5067511;28;20205;-84
2022/08/01 13:05:42;;;;;;;1.47;0.60;;;;;;;;;;5065431;28;20294;-83
2022/08/01 13:08:12;;;;;;;1.17;1.13;;;;;;;;;;5086134;28;20204;-83
2022/08/01 13:10:43;;;;;;;0.97;0.63;;;;;;;;;;5065367;28;20198;-85
2022/08/01 13:13:12;;;;;;;0.30;0.30;;;;;;;;;;5060597;28;20317;-84
2022/08/01 13:16:07;;;;;;;4.10;1.10;;;;;;;;;;5063220;28;20216;-86
2022/08/01 13:18:59;;;;;;;2.20;0.67;;;;;;;;;;5063807;28;20231;-86
2022/08/01 13:21:28;;;;;;;0.60;0.60;;;;;;;;;;5061326;28;20249;-85
2022/08/01 13:24:17;;;;;;;0.27;0.27;;;;;;;;;;5061782;28;20214;-85
2022/08/01 13:26:47;;;;;;;0.30;0.30;;;;;;;;;;5072710;28;20199;-86
2022/08/01 13:29:30;;;;;;;6.50;2.47;;;;;;;;;;5067917;28;20315;-87
2022/08/01 13:32:13;;;;;;;0.37;0.37;;;;;;;;;;5064656;28;20233;-82
2022/08/01 13:35:08;;;;;;;0.30;0.30;;;;;;;;;;5066450;28;20226;-82
2022/08/01 13:37:37;;;;;;;0.40;0.40;;;;;;;;;;5055344;28;20265;-83
2022/08/01 13:40:08;;;;;;;0.97;0.97;;;;;;;;;;5065031;28;20209;-81
2022/08/01 13:42:37;;;;;;;0.30;0.30;;;;;;;;;;5053209;28;20213;-83
2022/08/01 13:45:09;;;;;;;2.33;0.87;;;;;;;;;;5078433;28;20205;-82
2022/08/01 13:47:43;;;;;;;0.73;0.73;;;;;;;;;;5064476;28;20203;-82
2022/08/01 13:50:32;;;;;;;0.50;0.50;;;;;;;;;;5062139;28;20207;-81
2022/08/01 13:53:01;;;;;;;0.93;0.93;;;;;;;;;;5059593;28;20253;-82
2022/08/01 13:55:29;;;;;;;0.50;0.50;;;;;;;;;;5057971;28;20205;-83
2022/08/01 13:58:02;;;;;;;2.60;1.20;;;;;;;;;;5066213;28;20236;-83
2022/08/01 14:00:31;;;;;;;0.20;0.20;;;;;;;;;;5059609;28;20206;-81
2022/08/01 14:03:01;;;;;;;4.10;1.67;;;;;;;;;;5062978;28;20205;-81
2022/08/01 14:05:29;;;;;;;4.13;1.63;;;;;;;;;;5060639;28;20214;-80
2022/08/01 14:07:58;;;;;;;2.37;1.00;;;;;;;;;;5060959;28;20279;-81
2022/08/01 14:10:26;;;;;;;3.20;1.17;;;;;;;;;;5060089;28;20214;-81
2022/08/01 14:12:57;;;;;;;1.80;1.10;;;;;;;;;;5076848;28;20201;-82
2022/08/01 14:15:26;;;;;;;0.20;0.20;;;;;;;;;;5065134;28;20217;-82
2022/08/01 14:18:08;;;;;;;0.47;0.47;;;;;;;;;;5054697;28;20219;-81
2022/08/01 14:20:39;;;;;;;3.27;1.60;;;;;;;;;;5059136;28;20283;-81
2022/08/01 14:23:07;;;;;;;5.77;0.93;;;;;;;;;;5057899;28;20210;-81
2022/08/01 14:25:37;;;;;;;3.30;1.50;;;;;;;;;;5072053;28;20205;-82
2022/08/01 14:28:27;;;;;;;2.70;1.00;;;;;;;;;;5064387;28;20226;-82
2022/08/01 14:30:57;;;;;;;1.10;0.60;;;;;;;;;;5052881;28;20212;-81
2022/08/01 14:33:27;;;;;;;1.07;0.63;;;;;;;;;;5061342;28;20213;-81
2022/08/01 14:35:55;;;;;;;0.93;0.90;;;;;;;;;;5063498;28;20214;-81
2022/08/01 14:38:44;;;;;;;0.50;0.50;;;;;;;;;;5070585;28;20206;-80
2022/08/01 14:41:14;;;;;;;0.50;0.50;;;;;;;;;;5062795;28;20201;-81
2022/08/01 14:43:42;;;;;;;4.80;0.57;;;;;;;;;;5059492;28;20210;-80
2022/08/01 14:46:12;;;;;;;1.03;1.03;;;;;;;;;;5061896;28;20204;-80
2022/08/01 14:48:42;;;;;;;0.80;0.70;;;;;;;;;;5056761;28;20218;-80
2022/08/01 14:51:11;;;;;;;4.47;1.50;;;;;;;;;;5056756;28;20290;-80
2022/08/01 14:53:40;;;;;;;1.20;1.20;;;;;;;;;;5057189;28;20215;-81
2022/08/01 14:56:14;;;;;;;0.40;0.40;;;;;;;;;;5054518;28;20268;-81
2022/08/01 14:58:46;;;;;;;0.83;0.50;;;;;;;;;;5061933;28;20301;-82
2022/08/01 15:01:16;;;;;;;0.83;0.50;;;;;;;;;;5070215;28;20202;-80
2022/08/01 15:03:47;;;;;;;1.73;0.80;;;;;;;;;;5051584;28;20293;-80
2022/08/01 15:06:16;;;;;;;0.60;0.60;;;;;;;;;;5053715;28;20212;-81
2022/08/01 15:08:44;;;;;;;1.03;0.50;;;;;;;;;;5052582;28;20192;-80
2022/08/01 15:11:13;;;;;;;0.87;0.87;;;;;;;;;;5066382;28;20212;-80
2022/08/01 15:13:41;;;;;;;0.30;0.30;;;;;;;;;;5051645;28;20216;-79
2022/08/01 15:16:10;;;;;;;4.20;1.00;;;;;;;;;;5062438;28;20201;-79
2022/08/01 15:18:41;;;;;;;0.30;0.30;;;;;;;;;;5052595;28;20219;-79